EGPB/LSI METAR and TAF weather

Enter ICAO airport designator
Station Type Date Time Source
EGPB METAR 2022/05/26 03:50 UTC NOAA

EGPB 260350Z AUTO 26017KT 9999 SCT017/// 09/07 Q1002


Station Type Date Time Source
EGPB Decoded METAR 2022/05/26 03:50 UTC NOAA

Sumburgh Cape , United Kingdom (EGPB) 59-53N 001-18W
May 25, 2022 - 11:50 PM EDT / 2022.05.26 0350 UTC
Wind: from the W (260 degrees) at 20 MPH (17 KT):0
Visibility: greater than 7 mile(s):0
Sky conditions: partly cloudy
Temperature: 48 F (9 C)
Dew Point: 44 F (7 C)
Relative Humidity: 87%
Pressure (altimeter): 29.59 in. Hg (1002 hPa)
ob: EGPB 260350Z AUTO 26017KT 9999 SCT017/// 09/07 Q1002
cycle: 4

Station Type Date Time Source
EGPB TAF UTC NOAA

Error!

Example: see airport list